Главная страница
METAR-TAF:

METAR-TAF

Аэропорты :

Лаппеэнранта, Финляндия

широта: 61-02-45N, долгота: 028-08-55E, высота над уровнем моря: 106 м

Текущие метеонаблюдения

Эта сводка был подготовлена 24 минут назад, в 04:20 UTC
Ветер 7 Узел от восточно-юго-восточный, изменяющийся между северо-восточный и юго-восточный
Температура -10°C
Влажность 85%
Давление 1006 hPa
Видимость: 2000 м
Сплошная облачность на высоте 1300 фута
небольшой снег

METAR: EFLP 170420Z AUTO 11007KT 050V140 2000 -SN OVC013 M10/M12 Q1006

Время: 06:44 (04:44 UTC)


TAF: отсутствует

Метеонаблюдения и прогнозы для более 4000 аэропортов (сводки METAR и TAF).

Имеющиеся станции представлены на карте желтыми и красными точками.

Чтобы увидеть название станции, наведите на нее мышь.

Затем щелкните, чтобы увидеть метеонаблюдения и метеопрогнозы.

Управление картой: чтобы увеличить масштаб, щелкните зеленые кнопки с черным крестиком; чтобы уменьшить масштаб, щелкните зеленую кнопку с тире; для просмотра соседних карт щелкайте зеленые стрелки.


METAR-TAF: